createdAt,value
2023-04-28T00:05:37.027Z,15.48
2023-04-28T00:12:19.340Z,21.92
2023-04-28T00:19:01.582Z,16.23
2023-04-28T00:25:43.794Z,14.57
2023-04-28T00:32:26.040Z,12.00
2023-04-28T00:39:10.141Z,12.15
2023-04-28T00:45:53.006Z,17.63
2023-04-28T00:52:35.467Z,32.60
2023-04-28T00:59:17.681Z,10.18
2023-04-28T01:06:00.327Z,17.15
2023-04-28T01:12:42.930Z,25.63
2023-04-28T01:19:25.217Z,10.75
2023-04-28T01:26:08.342Z,16.38
2023-04-28T01:32:50.652Z,23.45
2023-04-28T01:39:36.004Z,13.13
2023-04-28T01:46:18.907Z,12.45
2023-04-28T01:53:01.192Z,9.52
2023-04-28T01:59:43.450Z,11.45
2023-04-28T02:06:27.608Z,10.13
2023-04-28T02:13:09.823Z,19.92
2023-04-28T02:19:58.868Z,11.25
2023-04-28T02:26:42.534Z,17.08
2023-04-28T02:33:25.211Z,9.85
2023-04-28T02:40:08.642Z,10.80
2023-04-28T02:46:51.216Z,12.77
2023-04-28T02:53:33.555Z,14.15
2023-04-28T03:00:16.358Z,11.18
2023-04-28T03:07:02.957Z,17.98
2023-04-28T03:13:45.099Z,14.85
2023-04-28T03:20:27.377Z,14.63
2023-04-28T03:27:10.948Z,10.10
2023-04-28T03:33:53.201Z,17.25
2023-04-28T03:40:36.951Z,12.38
2023-04-28T03:47:28.561Z,12.70
2023-04-28T03:54:11.313Z,11.98
2023-04-28T04:00:54.279Z,7.22
2023-04-28T04:07:36.779Z,9.45
2023-04-28T04:14:22.935Z,11.48
2023-04-28T04:21:05.607Z,12.90
2023-04-28T04:27:48.922Z,13.63
2023-04-28T04:34:31.246Z,10.30
2023-04-28T04:41:14.234Z,12.98
2023-04-28T04:47:57.140Z,11.98
2023-04-28T04:54:39.486Z,13.98
2023-04-28T05:01:25.891Z,11.30
2023-04-28T05:08:08.439Z,13.43
2023-04-28T05:14:50.996Z,10.05
2023-04-28T05:21:35.902Z,11.07
2023-04-28T05:28:20.587Z,13.32
2023-04-28T05:35:05.304Z,10.18
2023-04-28T05:41:47.950Z,10.20
2023-04-28T05:48:30.208Z,15.05
2023-04-28T05:55:12.689Z,17.88
2023-04-28T06:01:55.255Z,15.77
2023-04-28T06:08:40.967Z,12.50
2023-04-28T06:15:23.259Z,14.02
2023-04-28T06:22:05.562Z,15.30
2023-04-28T06:28:47.786Z,17.58
2023-04-28T06:35:30.197Z,15.63
2023-04-28T06:42:12.552Z,9.52
2023-04-28T06:48:58.165Z,8.00
2023-04-28T06:55:40.671Z,10.02
2023-04-28T07:02:23.037Z,9.90
2023-04-28T07:09:05.315Z,11.02
2023-04-28T07:15:47.475Z,10.43
2023-04-28T07:22:29.596Z,6.75
2023-04-28T07:29:13.562Z,8.77
2023-04-28T07:35:56.091Z,8.00
2023-04-28T07:42:38.482Z,10.23
2023-04-28T07:49:20.826Z,5.80
2023-04-28T07:56:03.480Z,16.98
2023-04-28T08:02:45.900Z,8.52
2023-04-28T08:09:28.142Z,10.55
2023-04-28T08:16:10.430Z,9.70
2023-04-28T08:22:52.866Z,7.55
2023-04-28T08:29:35.230Z,5.18
2023-04-28T08:36:18.823Z,7.20
2023-04-28T08:43:01.264Z,8.82
2023-04-28T08:49:45.823Z,6.95
2023-04-28T08:56:35.437Z,17.00
2023-04-28T09:03:18.379Z,5.03
2023-04-28T09:10:21.692Z,5.93
2023-04-28T09:17:13.795Z,6.20
2023-04-28T09:23:56.076Z,9.13
2023-04-28T09:30:42.704Z,12.32
2023-04-28T09:37:32.759Z,4.03
2023-04-28T09:44:19.252Z,12.25
2023-04-28T09:51:04.668Z,6.15
2023-04-28T09:57:50.049Z,12.00
2023-04-28T10:04:33.961Z,5.45
2023-04-28T10:11:17.104Z,7.80
2023-04-28T10:18:00.416Z,5.68
2023-04-28T10:25:25.853Z,3.95
2023-04-28T10:32:24.075Z,7.68
2023-04-28T10:39:14.272Z,6.03
2023-04-28T10:46:03.593Z,5.32
2023-04-28T10:52:45.818Z,6.05
2023-04-28T10:59:28.887Z,12.32
2023-04-28T11:06:24.939Z,3.92
2023-04-28T11:13:31.841Z,5.88
2023-04-28T11:20:14.656Z,14.55
2023-04-28T11:27:01.087Z,10.18
2023-04-28T11:33:44.915Z,5.75
2023-04-28T11:40:27.068Z,7.80
2023-04-28T11:47:09.326Z,7.40
2023-04-28T11:53:51.680Z,4.43
2023-04-28T12:00:33.902Z,4.43
2023-04-28T12:07:18.745Z,5.93
2023-04-28T12:14:07.770Z,6.57
2023-04-28T12:20:49.927Z,6.47
2023-04-28T12:27:32.298Z,5.07
2023-04-28T12:34:14.486Z,9.45
2023-04-28T12:40:57.327Z,20.98
2023-04-28T12:47:39.902Z,9.93
2023-04-28T12:54:22.125Z,26.63
2023-04-28T13:01:04.608Z,15.73
2023-04-28T13:07:47.806Z,9.65
2023-04-28T13:14:31.420Z,11.85
2023-04-28T13:21:13.575Z,2.73
2023-04-28T13:27:55.773Z,4.85
2023-04-28T13:34:38.233Z,6.85
2023-04-28T13:41:21.270Z,8.10
2023-04-28T13:48:04.236Z,6.10
2023-04-28T13:54:46.890Z,5.53
2023-04-28T14:01:29.614Z,10.10
2023-04-28T14:08:12.408Z,6.68
2023-04-28T14:14:54.574Z,4.88
2023-04-28T14:21:37.656Z,3.83
2023-04-28T14:28:19.856Z,6.93
2023-04-28T14:35:05.322Z,4.60
2023-04-28T14:41:47.483Z,5.07
2023-04-28T14:48:29.786Z,6.13
2023-04-28T14:55:12.069Z,9.93
2023-04-28T15:01:55.207Z,7.95
2023-04-28T15:08:37.920Z,6.30
2023-04-28T15:15:20.081Z,6.70
2023-04-28T15:22:02.651Z,6.22
2023-04-28T15:28:44.758Z,7.22
2023-04-28T15:35:26.910Z,5.45
2023-04-28T15:42:09.072Z,8.85
2023-04-28T15:48:51.823Z,9.75
2023-04-28T15:55:34.258Z,5.05
2023-04-28T16:02:16.870Z,8.68
2023-04-28T16:08:59.818Z,11.68
2023-04-28T16:15:42.914Z,14.68
2023-04-28T16:22:25.880Z,7.45
2023-04-28T16:29:08.100Z,5.20
2023-04-28T16:35:59.458Z,8.40
2023-04-28T16:42:42.299Z,6.97
2023-04-28T16:49:25.054Z,15.55
2023-04-28T16:56:09.798Z,33.53
2023-04-28T17:02:52.930Z,65.22
2023-04-28T17:09:35.237Z,28.02
2023-04-28T17:16:17.569Z,33.92
2023-04-28T17:22:59.773Z,24.65
2023-04-28T17:29:42.904Z,24.48
2023-04-28T17:36:28.837Z,24.77
2023-04-28T17:43:12.186Z,21.52
2023-04-28T17:49:54.847Z,29.40
2023-04-28T17:56:38.750Z,89.13
2023-04-28T18:03:21.122Z,50.37
2023-04-28T18:10:03.662Z,52.42
2023-04-28T18:16:46.542Z,32.55
2023-04-28T18:23:30.766Z,28.23
2023-04-28T18:30:13.197Z,34.53
2023-04-28T18:36:55.389Z,37.80
2023-04-28T18:43:37.819Z,31.48
2023-04-28T18:50:20.133Z,36.67
2023-04-28T18:57:03.450Z,32.92
2023-04-28T19:03:45.870Z,42.60
2023-04-28T19:10:28.148Z,83.35
2023-04-28T19:17:10.470Z,159.90
2023-04-28T19:23:53.345Z,111.60
2023-04-28T19:30:35.557Z,90.88
2023-04-28T19:37:17.895Z,50.60
2023-04-28T19:44:00.182Z,33.90
2023-04-28T19:50:42.578Z,33.60
2023-04-28T19:57:24.808Z,29.80
2023-04-28T20:04:07.502Z,28.52
2023-04-28T20:10:50.113Z,27.75
2023-04-28T20:17:32.319Z,32.90
2023-04-28T20:24:14.772Z,28.70
2023-04-28T20:30:57.290Z,28.38
2023-04-28T20:37:39.564Z,28.48
2023-04-28T20:44:21.923Z,26.10
2023-04-28T20:51:05.194Z,27.15
2023-04-28T20:57:47.376Z,24.90
2023-04-28T21:04:29.566Z,35.83
2023-04-28T21:11:13.709Z,31.15
2023-04-28T21:17:56.272Z,41.07
2023-04-28T21:24:38.473Z,28.63
2023-04-28T21:31:21.885Z,28.42
2023-04-28T21:38:04.065Z,30.92
2023-04-28T21:44:46.333Z,28.98
2023-04-28T21:51:29.329Z,34.78
2023-04-28T21:58:12.301Z,30.77
2023-04-28T22:04:54.979Z,28.10
2023-04-28T22:11:37.667Z,32.00
2023-04-28T22:18:20.311Z,28.85
2023-04-28T22:25:02.427Z,28.52
2023-04-28T22:31:44.651Z,40.33
2023-04-28T22:38:26.814Z,31.25
2023-04-28T22:45:10.672Z,45.88
2023-04-28T22:51:53.230Z,29.37
2023-04-28T22:58:35.724Z,22.80
2023-04-28T23:05:18.119Z,26.63
2023-04-28T23:12:00.260Z,31.67
2023-04-28T23:18:43.619Z,26.15
2023-04-28T23:25:26.364Z,33.33
2023-04-28T23:32:08.531Z,25.20
2023-04-28T23:38:50.758Z,24.45
2023-04-28T23:45:33.114Z,21.13
2023-04-28T23:52:15.524Z,21.95
2023-04-28T23:58:57.706Z,24.75
